sensor_id;sensor_type;location;lat;lon;timestamp;P1;P2;P0
46681;PMS5003;34101;53.430;-2.224;2022-08-03T00:01:05;1;1;
46681;PMS5003;34101;53.430;-2.224;2022-08-03T00:03:33;1;1;
46681;PMS5003;34101;53.430;-2.224;2022-08-03T00:06:00;2;1;
46681;PMS5003;34101;53.430;-2.224;2022-08-03T00:08:27;0;0;
46681;PMS5003;34101;53.430;-2.224;2022-08-03T00:10:55;3;3;
46681;PMS5003;34101;53.430;-2.224;2022-08-03T00:13:22;1;1;
46681;PMS5003;34101;53.430;-2.224;2022-08-03T00:15:50;1;1;
46681;PMS5003;34101;53.430;-2.224;2022-08-03T00:18:17;2;2;
46681;PMS5003;34101;53.430;-2.224;2022-08-03T00:20:44;0;0;
46681;PMS5003;34101;53.430;-2.224;2022-08-03T00:23:12;1;0;
46681;PMS5003;34101;53.430;-2.224;2022-08-03T00:25:39;1;1;
46681;PMS5003;34101;53.430;-2.224;2022-08-03T00:28:07;0;0;
46681;PMS5003;34101;53.430;-2.224;2022-08-03T00:30:34;1;1;
46681;PMS5003;34101;53.430;-2.224;2022-08-03T00:33:02;0;0;
46681;PMS5003;34101;53.430;-2.224;2022-08-03T00:35:29;0;0;
46681;PMS5003;34101;53.430;-2.224;2022-08-03T00:37:57;1;1;
46681;PMS5003;34101;53.430;-2.224;2022-08-03T00:40:25;1;1;
46681;PMS5003;34101;53.430;-2.224;2022-08-03T00:42:55;1;0;
46681;PMS5003;34101;53.430;-2.224;2022-08-03T00:45:23;0;0;
46681;PMS5003;34101;53.430;-2.224;2022-08-03T00:47:52;0;0;
46681;PMS5003;34101;53.430;-2.224;2022-08-03T00:50:20;3;0;
46681;PMS5003;34101;53.430;-2.224;2022-08-03T00:52:48;1;1;
46681;PMS5003;34101;53.430;-2.224;2022-08-03T00:55:17;0;0;
46681;PMS5003;34101;53.430;-2.224;2022-08-03T00:57:45;0;0;
46681;PMS5003;34101;53.430;-2.224;2022-08-03T01:00:14;0;0;
46681;PMS5003;34101;53.430;-2.224;2022-08-03T01:02:42;0;0;
46681;PMS5003;34101;53.430;-2.224;2022-08-03T01:05:10;0;0;
46681;PMS5003;34101;53.430;-2.224;2022-08-03T01:07:41;0;0;
46681;PMS5003;34101;53.430;-2.224;2022-08-03T01:10:22;0;0;
46681;PMS5003;34101;53.430;-2.224;2022-08-03T01:12:56;0;0;
46681;PMS5003;34101;53.430;-2.224;2022-08-03T01:15:30;0;0;
46681;PMS5003;34101;53.430;-2.224;2022-08-03T01:18:05;0;0;
46681;PMS5003;34101;53.430;-2.224;2022-08-03T01:20:39;0;0;
46681;PMS5003;34101;53.430;-2.224;2022-08-03T01:23:19;0;0;
46681;PMS5003;34101;53.430;-2.224;2022-08-03T01:26:02;0;0;
46681;PMS5003;34101;53.430;-2.224;2022-08-03T01:28:46;0;0;
46681;PMS5003;34101;53.430;-2.224;2022-08-03T01:31:31;0;0;
46681;PMS5003;34101;53.430;-2.224;2022-08-03T01:34:03;0;0;
46681;PMS5003;34101;53.430;-2.224;2022-08-03T01:36:35;0;0;
46681;PMS5003;34101;53.430;-2.224;2022-08-03T01:39:05;0;0;
46681;PMS5003;34101;53.430;-2.224;2022-08-03T01:41:35;1;0;
46681;PMS5003;34101;53.430;-2.224;2022-08-03T01:44:08;0;0;
46681;PMS5003;34101;53.430;-2.224;2022-08-03T01:46:37;0;0;
46681;PMS5003;34101;53.430;-2.224;2022-08-03T01:49:06;0;0;
46681;PMS5003;34101;53.430;-2.224;2022-08-03T01:51:34;0;0;
46681;PMS5003;34101;53.430;-2.224;2022-08-03T01:54:05;0;0;
46681;PMS5003;34101;53.430;-2.224;2022-08-03T01:56:33;0;0;
46681;PMS5003;34101;53.430;-2.224;2022-08-03T01:59:03;0;0;
46681;PMS5003;34101;53.430;-2.224;2022-08-03T02:01:34;0;0;
46681;PMS5003;34101;53.430;-2.224;2022-08-03T02:04:03;0;0;
46681;PMS5003;34101;53.430;-2.224;2022-08-03T02:06:32;0;0;
46681;PMS5003;34101;53.430;-2.224;2022-08-03T02:09:01;0;0;
46681;PMS5003;34101;53.430;-2.224;2022-08-03T02:11:29;0;0;
46681;PMS5003;34101;53.430;-2.224;2022-08-03T02:13:58;0;0;
46681;PMS5003;34101;53.430;-2.224;2022-08-03T02:16:29;0;0;
46681;PMS5003;34101;53.430;-2.224;2022-08-03T02:18:59;0;0;
46681;PMS5003;34101;53.430;-2.224;2022-08-03T02:21:30;0;0;
46681;PMS5003;34101;53.430;-2.224;2022-08-03T02:24:01;0;0;
46681;PMS5003;34101;53.430;-2.224;2022-08-03T02:26:29;0;0;
46681;PMS5003;34101;53.430;-2.224;2022-08-03T02:28:58;0;0;
46681;PMS5003;34101;53.430;-2.224;2022-08-03T02:31:29;0;0;
46681;PMS5003;34101;53.430;-2.224;2022-08-03T02:34:03;2;1;
46681;PMS5003;34101;53.430;-2.224;2022-08-03T02:36:36;1;1;
46681;PMS5003;34101;53.430;-2.224;2022-08-03T02:39:05;0;0;
46681;PMS5003;34101;53.430;-2.224;2022-08-03T02:41:37;1;1;
46681;PMS5003;34101;53.430;-2.224;2022-08-03T02:44:08;1;1;
46681;PMS5003;34101;53.430;-2.224;2022-08-03T02:46:38;0;0;
46681;PMS5003;34101;53.430;-2.224;2022-08-03T02:49:09;1;0;
46681;PMS5003;34101;53.430;-2.224;2022-08-03T02:51:39;0;0;
46681;PMS5003;34101;53.430;-2.224;2022-08-03T02:54:09;0;0;
46681;PMS5003;34101;53.430;-2.224;2022-08-03T02:56:44;0;0;
46681;PMS5003;34101;53.430;-2.224;2022-08-03T02:59:14;0;0;
46681;PMS5003;34101;53.430;-2.224;2022-08-03T03:01:43;0;0;
46681;PMS5003;34101;53.430;-2.224;2022-08-03T03:04:12;0;0;
46681;PMS5003;34101;53.430;-2.224;2022-08-03T03:06:41;1;1;
46681;PMS5003;34101;53.430;-2.224;2022-08-03T03:09:09;0;0;
46681;PMS5003;34101;53.430;-2.224;2022-08-03T03:11:37;0;0;
46681;PMS5003;34101;53.430;-2.224;2022-08-03T03:14:06;1;1;
46681;PMS5003;34101;53.430;-2.224;2022-08-03T03:16:35;0;0;
46681;PMS5003;34101;53.430;-2.224;2022-08-03T03:19:02;0;0;
46681;PMS5003;34101;53.430;-2.224;2022-08-03T03:21:29;0;0;
46681;PMS5003;34101;53.430;-2.224;2022-08-03T03:23:58;1;1;
46681;PMS5003;34101;53.430;-2.224;2022-08-03T03:26:26;0;0;
46681;PMS5003;34101;53.430;-2.224;2022-08-03T03:28:53;0;0;
46681;PMS5003;34101;53.430;-2.224;2022-08-03T03:31:21;1;1;
46681;PMS5003;34101;53.430;-2.224;2022-08-03T03:33:48;0;0;
46681;PMS5003;34101;53.430;-2.224;2022-08-03T03:36:16;0;0;
46681;PMS5003;34101;53.430;-2.224;2022-08-03T03:38:43;0;0;
46681;PMS5003;34101;53.430;-2.224;2022-08-03T03:41:11;0;0;
46681;PMS5003;34101;53.430;-2.224;2022-08-03T03:43:38;1;1;
46681;PMS5003;34101;53.430;-2.224;2022-08-03T03:46:05;0;0;
46681;PMS5003;34101;53.430;-2.224;2022-08-03T03:48:32;0;0;
46681;PMS5003;34101;53.430;-2.224;2022-08-03T03:51:00;1;1;
46681;PMS5003;34101;53.430;-2.224;2022-08-03T03:53:33;0;0;
46681;PMS5003;34101;53.430;-2.224;2022-08-03T03:56:02;0;0;
46681;PMS5003;34101;53.430;-2.224;2022-08-03T03:58:31;1;1;
46681;PMS5003;34101;53.430;-2.224;2022-08-03T04:00:59;0;0;
46681;PMS5003;34101;53.430;-2.224;2022-08-03T04:03:26;0;0;
46681;PMS5003;34101;53.430;-2.224;2022-08-03T04:05:54;1;1;
46681;PMS5003;34101;53.430;-2.224;2022-08-03T04:08:22;1;1;
46681;PMS5003;34101;53.430;-2.224;2022-08-03T04:10:53;1;1;
46681;PMS5003;34101;53.430;-2.224;2022-08-03T04:13:29;2;0;
46681;PMS5003;34101;53.430;-2.224;2022-08-03T04:15:59;0;0;
46681;PMS5003;34101;53.430;-2.224;2022-08-03T04:18:28;1;1;
46681;PMS5003;34101;53.430;-2.224;2022-08-03T04:21:00;3;2;
46681;PMS5003;34101;53.430;-2.224;2022-08-03T04:23:30;2;1;
46681;PMS5003;34101;53.430;-2.224;2022-08-03T04:26:01;3;1;
46681;PMS5003;34101;53.430;-2.224;2022-08-03T04:28:30;1;1;
46681;PMS5003;34101;53.430;-2.224;2022-08-03T04:31:00;2;1;
46681;PMS5003;34101;53.430;-2.224;2022-08-03T04:33:30;1;1;
46681;PMS5003;34101;53.430;-2.224;2022-08-03T04:36:00;1;1;
46681;PMS5003;34101;53.430;-2.224;2022-08-03T04:38:32;1;1;
46681;PMS5003;34101;53.430;-2.224;2022-08-03T04:41:04;0;0;
46681;PMS5003;34101;53.430;-2.224;2022-08-03T04:43:33;1;1;
46681;PMS5003;34101;53.430;-2.224;2022-08-03T04:46:01;1;1;
46681;PMS5003;34101;53.430;-2.224;2022-08-03T04:48:31;1;1;
46681;PMS5003;34101;53.430;-2.224;2022-08-03T04:50:58;3;1;
46681;PMS5003;34101;53.430;-2.224;2022-08-03T04:53:25;1;1;
46681;PMS5003;34101;53.430;-2.224;2022-08-03T04:55:53;0;0;
46681;PMS5003;34101;53.430;-2.224;2022-08-03T04:58:20;1;1;
46681;PMS5003;34101;53.430;-2.224;2022-08-03T05:00:48;1;1;
46681;PMS5003;34101;53.430;-2.224;2022-08-03T05:03:15;1;1;
46681;PMS5003;34101;53.430;-2.224;2022-08-03T05:05:43;2;2;
46681;PMS5003;34101;53.430;-2.224;2022-08-03T05:08:10;1;1;
46681;PMS5003;34101;53.430;-2.224;2022-08-03T05:10:38;1;1;
46681;PMS5003;34101;53.430;-2.224;2022-08-03T05:13:06;3;1;
46681;PMS5003;34101;53.430;-2.224;2022-08-03T05:15:33;4;1;
46681;PMS5003;34101;53.430;-2.224;2022-08-03T05:18:00;3;3;
46681;PMS5003;34101;53.430;-2.224;2022-08-03T05:20:28;1;1;
46681;PMS5003;34101;53.430;-2.224;2022-08-03T05:22:55;1;1;
46681;PMS5003;34101;53.430;-2.224;2022-08-03T05:25:23;2;2;
46681;PMS5003;34101;53.430;-2.224;2022-08-03T05:27:50;2;2;
46681;PMS5003;34101;53.430;-2.224;2022-08-03T05:30:18;4;2;
46681;PMS5003;34101;53.430;-2.224;2022-08-03T05:32:45;4;3;
46681;PMS5003;34101;53.430;-2.224;2022-08-03T05:35:12;2;2;
46681;PMS5003;34101;53.430;-2.224;2022-08-03T05:37:40;4;2;
46681;PMS5003;34101;53.430;-2.224;2022-08-03T05:40:08;2;2;
46681;PMS5003;34101;53.430;-2.224;2022-08-03T05:42:36;5;5;
46681;PMS5003;34101;53.430;-2.224;2022-08-03T05:45:03;4;3;
46681;PMS5003;34101;53.430;-2.224;2022-08-03T05:47:30;3;3;
46681;PMS5003;34101;53.430;-2.224;2022-08-03T05:49:58;6;3;
46681;PMS5003;34101;53.430;-2.224;2022-08-03T05:52:25;2;2;
46681;PMS5003;34101;53.430;-2.224;2022-08-03T05:54:53;5;4;
46681;PMS5003;34101;53.430;-2.224;2022-08-03T05:57:20;4;4;
46681;PMS5003;34101;53.430;-2.224;2022-08-03T05:59:48;3;3;
46681;PMS5003;34101;53.430;-2.224;2022-08-03T06:02:15;3;3;
46681;PMS5003;34101;53.430;-2.224;2022-08-03T06:04:42;1;1;
46681;PMS5003;34101;53.430;-2.224;2022-08-03T06:07:10;2;2;
46681;PMS5003;34101;53.430;-2.224;2022-08-03T06:09:37;3;3;
46681;PMS5003;34101;53.430;-2.224;2022-08-03T06:12:05;5;4;
46681;PMS5003;34101;53.430;-2.224;2022-08-03T06:14:32;4;4;
46681;PMS5003;34101;53.430;-2.224;2022-08-03T06:16:59;3;3;
46681;PMS5003;34101;53.430;-2.224;2022-08-03T06:19:27;4;4;
46681;PMS5003;34101;53.430;-2.224;2022-08-03T06:21:54;4;4;
46681;PMS5003;34101;53.430;-2.224;2022-08-03T06:24:22;5;5;
46681;PMS5003;34101;53.430;-2.224;2022-08-03T06:26:49;5;5;
46681;PMS5003;34101;53.430;-2.224;2022-08-03T06:29:16;6;6;
46681;PMS5003;34101;53.430;-2.224;2022-08-03T06:31:44;5;5;
46681;PMS5003;34101;53.430;-2.224;2022-08-03T06:34:12;4;4;
46681;PMS5003;34101;53.430;-2.224;2022-08-03T06:36:39;5;4;
46681;PMS5003;34101;53.430;-2.224;2022-08-03T06:39:06;3;3;
46681;PMS5003;34101;53.430;-2.224;2022-08-03T06:41:34;6;3;
46681;PMS5003;34101;53.430;-2.224;2022-08-03T06:44:01;7;4;
46681;PMS5003;34101;53.430;-2.224;2022-08-03T06:46:28;5;4;
46681;PMS5003;34101;53.430;-2.224;2022-08-03T06:48:56;5;4;
46681;PMS5003;34101;53.430;-2.224;2022-08-03T06:51:23;3;3;
46681;PMS5003;34101;53.430;-2.224;2022-08-03T06:53:51;3;3;
46681;PMS5003;34101;53.430;-2.224;2022-08-03T06:56:18;8;5;
46681;PMS5003;34101;53.430;-2.224;2022-08-03T06:58:45;3;3;
46681;PMS5003;34101;53.430;-2.224;2022-08-03T07:01:13;7;4;
46681;PMS5003;34101;53.430;-2.224;2022-08-03T07:03:40;6;5;
46681;PMS5003;34101;53.430;-2.224;2022-08-03T07:06:08;3;3;
46681;PMS5003;34101;53.430;-2.224;2022-08-03T07:08:35;4;4;
46681;PMS5003;34101;53.430;-2.224;2022-08-03T07:11:03;4;4;
46681;PMS5003;34101;53.430;-2.224;2022-08-03T07:13:35;2;2;
46681;PMS5003;34101;53.430;-2.224;2022-08-03T07:16:03;5;3;
46681;PMS5003;34101;53.430;-2.224;2022-08-03T07:18:30;4;4;
46681;PMS5003;34101;53.430;-2.224;2022-08-03T07:20:58;4;3;
46681;PMS5003;34101;53.430;-2.224;2022-08-03T07:23:25;4;4;
46681;PMS5003;34101;53.430;-2.224;2022-08-03T07:25:52;4;2;
46681;PMS5003;34101;53.430;-2.224;2022-08-03T07:28:20;6;3;
46681;PMS5003;34101;53.430;-2.224;2022-08-03T07:30:47;3;3;
46681;PMS5003;34101;53.430;-2.224;2022-08-03T07:33:14;4;4;
46681;PMS5003;34101;53.430;-2.224;2022-08-03T07:35:42;3;3;
46681;PMS5003;34101;53.430;-2.224;2022-08-03T07:38:09;4;4;
46681;PMS5003;34101;53.430;-2.224;2022-08-03T07:40:37;5;3;
46681;PMS5003;34101;53.430;-2.224;2022-08-03T07:43:04;7;4;
46681;PMS5003;34101;53.430;-2.224;2022-08-03T07:45:32;4;4;
46681;PMS5003;34101;53.430;-2.224;2022-08-03T07:47:59;4;4;
46681;PMS5003;34101;53.430;-2.224;2022-08-03T07:50:26;2;2;
46681;PMS5003;34101;53.430;-2.224;2022-08-03T07:52:54;4;4;
46681;PMS5003;34101;53.430;-2.224;2022-08-03T07:55:23;3;3;
46681;PMS5003;34101;53.430;-2.224;2022-08-03T07:57:59;3;3;
46681;PMS5003;34101;53.430;-2.224;2022-08-03T08:00:30;3;2;
46681;PMS5003;34101;53.430;-2.224;2022-08-03T08:02:59;4;4;
46681;PMS5003;34101;53.430;-2.224;2022-08-03T08:05:26;3;1;
46681;PMS5003;34101;53.430;-2.224;2022-08-03T08:07:54;5;3;
46681;PMS5003;34101;53.430;-2.224;2022-08-03T08:10:22;2;2;
46681;PMS5003;34101;53.430;-2.224;2022-08-03T08:12:49;4;2;
46681;PMS5003;34101;53.430;-2.224;2022-08-03T08:15:18;5;3;
46681;PMS5003;34101;53.430;-2.224;2022-08-03T08:17:48;3;3;
46681;PMS5003;34101;53.430;-2.224;2022-08-03T08:20:17;3;3;
46681;PMS5003;34101;53.430;-2.224;2022-08-03T08:22:46;3;3;
46681;PMS5003;34101;53.430;-2.224;2022-08-03T08:26:14;3;3;
46681;PMS5003;34101;53.430;-2.224;2022-08-03T08:28:42;6;5;
46681;PMS5003;34101;53.430;-2.224;2022-08-03T08:32:52;8;7;
46681;PMS5003;34101;53.430;-2.224;2022-08-03T08:35:19;5;5;
46681;PMS5003;34101;53.430;-2.224;2022-08-03T08:37:47;8;6;
46681;PMS5003;34101;53.430;-2.224;2022-08-03T08:40:14;9;8;
46681;PMS5003;34101;53.430;-2.224;2022-08-03T08:49:59;9;6;
46681;PMS5003;34101;53.430;-2.224;2022-08-03T08:53:46;5;5;
46681;PMS5003;34101;53.430;-2.224;2022-08-03T08:56:24;3;3;
46681;PMS5003;34101;53.430;-2.224;2022-08-03T08:58:55;3;3;
46681;PMS5003;34101;53.430;-2.224;2022-08-03T09:01:26;5;3;
46681;PMS5003;34101;53.430;-2.224;2022-08-03T09:04:13;4;4;
46681;PMS5003;34101;53.430;-2.224;2022-08-03T09:06:41;3;3;
46681;PMS5003;34101;53.430;-2.224;2022-08-03T09:10:24;7;6;
46681;PMS5003;34101;53.430;-2.224;2022-08-03T09:12:57;6;4;
46681;PMS5003;34101;53.430;-2.224;2022-08-03T09:15:25;3;3;
46681;PMS5003;34101;53.430;-2.224;2022-08-03T09:17:54;4;4;
46681;PMS5003;34101;53.430;-2.224;2022-08-03T09:20:23;5;3;
46681;PMS5003;34101;53.430;-2.224;2022-08-03T09:31:31;5;4;
46681;PMS5003;34101;53.430;-2.224;2022-08-03T09:34:01;3;3;
46681;PMS5003;34101;53.430;-2.224;2022-08-03T09:37:11;5;5;
46681;PMS5003;34101;53.430;-2.224;2022-08-03T09:39:40;3;3;
46681;PMS5003;34101;53.430;-2.224;2022-08-03T09:42:08;3;3;
46681;PMS5003;34101;53.430;-2.224;2022-08-03T09:44:38;3;3;
46681;PMS5003;34101;53.430;-2.224;2022-08-03T09:47:06;3;3;
46681;PMS5003;34101;53.430;-2.224;2022-08-03T09:49:35;4;4;
46681;PMS5003;34101;53.430;-2.224;2022-08-03T09:52:11;3;3;
46681;PMS5003;34101;53.430;-2.224;2022-08-03T09:54:39;3;3;
46681;PMS5003;34101;53.430;-2.224;2022-08-03T09:57:07;4;4;
46681;PMS5003;34101;53.430;-2.224;2022-08-03T09:59:45;2;2;
46681;PMS5003;34101;53.430;-2.224;2022-08-03T10:02:19;3;3;
46681;PMS5003;34101;53.430;-2.224;2022-08-03T10:04:48;5;5;
46681;PMS5003;34101;53.430;-2.224;2022-08-03T10:07:16;4;4;
46681;PMS5003;34101;53.430;-2.224;2022-08-03T10:09:52;3;3;
46681;PMS5003;34101;53.430;-2.224;2022-08-03T10:12:21;4;4;
